createdAt,value
2018-09-18T00:02:53.971Z,7.80
2018-09-18T00:05:28.162Z,8.03
2018-09-18T00:08:06.362Z,8.60
2018-09-18T00:10:41.576Z,8.37
2018-09-18T00:16:04.024Z,9.80
2018-09-18T00:18:36.528Z,10.30
2018-09-18T00:21:08.945Z,10.73
2018-09-18T00:23:40.451Z,10.87
2018-09-18T00:26:14.685Z,11.47
2018-09-18T00:33:58.165Z,11.73
2018-09-18T00:36:31.118Z,11.67
2018-09-18T00:39:07.427Z,12.10
2018-09-18T00:44:20.611Z,11.27
2018-09-18T00:46:56.748Z,11.80
2018-09-18T00:52:05.670Z,11.60
2018-09-18T00:54:45.550Z,11.83
2018-09-18T00:57:21.145Z,11.37
2018-09-18T00:59:54.377Z,11.30
2018-09-18T01:05:12.904Z,10.17
2018-09-18T01:07:42.882Z,10.30
2018-09-18T01:10:12.782Z,10.67
2018-09-18T01:12:47.687Z,10.30
2018-09-18T01:15:19.140Z,10.37
2018-09-18T01:17:49.327Z,10.40
2018-09-18T01:20:23.632Z,10.53
2018-09-18T01:23:01.290Z,10.87
2018-09-18T01:25:42.545Z,10.43
2018-09-18T01:28:12.441Z,10.20
2018-09-18T01:30:43.576Z,11.37
2018-09-18T01:33:14.805Z,11.70
2018-09-18T01:35:46.350Z,11.27
2018-09-18T01:41:03.632Z,11.73
2018-09-18T01:46:17.820Z,11.03
2018-09-18T01:51:26.803Z,10.73
2018-09-18T01:53:58.387Z,10.50
2018-09-18T01:56:32.935Z,9.40
2018-09-18T01:59:04.570Z,9.83
2018-09-18T02:01:37.489Z,9.07
2018-09-18T02:04:08.165Z,9.40
2018-09-18T02:06:41.786Z,8.90
2018-09-18T02:09:10.418Z,8.87
2018-09-18T02:11:44.782Z,8.80
2018-09-18T02:14:14.978Z,8.20
2018-09-18T02:16:55.374Z,7.57
2018-09-18T02:19:25.765Z,7.27
2018-09-18T02:21:56.140Z,7.50
2018-09-18T02:24:29.407Z,7.10
2018-09-18T02:29:37.734Z,7.17
2018-09-18T02:32:10.375Z,6.87
2018-09-18T02:34:55.744Z,6.43
2018-09-18T02:37:26.877Z,6.83
2018-09-18T02:39:59.804Z,6.83
2018-09-18T02:42:32.995Z,6.03
2018-09-18T02:45:05.857Z,5.90
2018-09-18T02:47:35.770Z,6.23
2018-09-18T02:50:04.812Z,6.53
2018-09-18T02:52:35.953Z,7.23
2018-09-18T02:55:05.891Z,7.40
2018-09-18T02:57:37.347Z,7.67
2018-09-18T03:00:12.468Z,7.83
2018-09-18T03:02:43.518Z,7.90
2018-09-18T03:05:18.703Z,8.37
2018-09-18T03:07:47.894Z,7.87
2018-09-18T03:10:19.085Z,7.90
2018-09-18T03:12:52.658Z,7.93
2018-09-18T03:15:58.215Z,8.13
2018-09-18T03:18:31.411Z,7.90
2018-09-18T03:21:03.028Z,8.40
2018-09-18T03:23:37.360Z,7.70
2018-09-18T03:26:07.381Z,7.83
2018-09-18T03:28:37.851Z,8.03
2018-09-18T03:33:53.213Z,8.40
2018-09-18T03:39:00.395Z,8.23
2018-09-18T03:41:30.564Z,8.87
2018-09-18T03:44:04.426Z,8.90
2018-09-18T03:46:49.380Z,9.30
2018-09-18T03:49:21.227Z,8.50
2018-09-18T03:51:51.332Z,8.80
2018-09-18T03:54:22.631Z,7.93
2018-09-18T03:56:52.487Z,8.63
2018-09-18T03:59:23.281Z,7.90
2018-09-18T04:01:52.461Z,8.20
2018-09-18T04:04:21.802Z,8.17
2018-09-18T04:06:51.066Z,8.00
2018-09-18T04:09:22.431Z,8.80
2018-09-18T04:11:52.563Z,8.10
2018-09-18T04:14:21.750Z,8.10
2018-09-18T04:16:51.047Z,8.30
2018-09-18T04:19:19.612Z,8.03
2018-09-18T04:21:51.172Z,8.30
2018-09-18T04:24:28.180Z,8.30
2018-09-18T04:29:38.380Z,8.23
2018-09-18T04:32:12.511Z,8.20
2018-09-18T04:34:49.504Z,7.67
2018-09-18T04:37:19.580Z,8.17
2018-09-18T04:39:52.419Z,8.20
2018-09-18T04:42:25.640Z,7.70
2018-09-18T04:44:55.920Z,8.73
2018-09-18T04:47:27.306Z,8.70
2018-09-18T04:49:59.058Z,8.57
2018-09-18T04:52:30.186Z,7.93
2018-09-18T04:55:19.442Z,8.27
2018-09-18T04:57:53.260Z,8.53
2018-09-18T05:00:24.213Z,9.00
2018-09-18T05:02:59.230Z,8.63
2018-09-18T05:05:43.681Z,8.50
2018-09-18T05:08:18.956Z,8.73
2018-09-18T05:10:48.093Z,9.00
2018-09-18T05:13:22.626Z,8.37
2018-09-18T05:16:03.137Z,9.00
2018-09-18T05:18:39.896Z,8.70
2018-09-18T05:21:14.132Z,8.23
2018-09-18T05:23:51.214Z,8.77
2018-09-18T05:26:28.871Z,8.70
2018-09-18T05:29:00.459Z,8.73
2018-09-18T05:31:39.639Z,8.90
2018-09-18T05:39:42.076Z,8.90
2018-09-18T05:45:26.421Z,8.83
2018-09-18T05:48:02.448Z,8.37
2018-09-18T05:53:26.121Z,7.70
2018-09-18T05:56:03.305Z,8.07
2018-09-18T05:58:51.414Z,7.90
2018-09-18T06:04:08.292Z,8.37
2018-09-18T06:15:40.992Z,6.47
2018-09-18T06:18:11.341Z,7.27
2018-09-18T06:20:41.495Z,6.70
2018-09-18T06:23:10.575Z,6.57
2018-09-18T06:25:49.827Z,6.77
2018-09-18T06:28:18.325Z,6.30
2018-09-18T06:30:48.391Z,6.87
2018-09-18T06:33:18.615Z,6.10
2018-09-18T06:35:51.675Z,6.93
2018-09-18T06:40:57.151Z,6.50
2018-09-18T06:43:27.354Z,6.90
2018-09-18T06:46:11.554Z,6.10
2018-09-18T06:48:46.315Z,6.30
2018-09-18T06:51:26.376Z,7.90
2018-09-18T06:53:54.879Z,5.53
2018-09-18T06:56:24.476Z,5.60
2018-09-18T06:58:54.227Z,5.43
2018-09-18T07:04:01.684Z,6.20
2018-09-18T07:06:46.881Z,5.07
2018-09-18T07:09:20.652Z,4.90
2018-09-18T07:11:51.107Z,5.83
2018-09-18T07:14:22.096Z,6.20
2018-09-18T07:16:51.122Z,6.70
2018-09-18T07:19:19.528Z,5.30
2018-09-18T07:21:50.233Z,5.83
2018-09-18T07:24:19.979Z,4.70
2018-09-18T07:26:49.095Z,4.90
2018-09-18T07:29:22.790Z,4.87
2018-09-18T07:31:54.595Z,4.60
2018-09-18T07:34:24.427Z,5.00
2018-09-18T07:36:55.162Z,4.53
2018-09-18T07:39:23.615Z,4.70
2018-09-18T07:41:56.615Z,4.50
2018-09-18T07:44:34.684Z,4.60
2018-09-18T07:47:07.838Z,4.80
2018-09-18T07:49:39.144Z,4.20
2018-09-18T07:52:09.203Z,3.67
2018-09-18T07:57:17.870Z,3.37
2018-09-18T07:59:50.590Z,3.80
2018-09-18T08:02:21.276Z,3.63
2018-09-18T08:05:02.610Z,3.73
2018-09-18T08:07:31.241Z,3.87
2018-09-18T08:10:00.523Z,4.07
2018-09-18T08:12:37.772Z,2.97
2018-09-18T08:15:21.127Z,3.27
2018-09-18T08:17:59.611Z,3.13
2018-09-18T08:20:30.431Z,3.33
2018-09-18T08:23:00.641Z,3.70
2018-09-18T08:25:31.627Z,3.20
2018-09-18T08:28:00.524Z,3.73
2018-09-18T08:30:30.604Z,3.10
2018-09-18T08:33:03.234Z,2.80
2018-09-18T08:41:19.822Z,2.70
2018-09-18T08:43:58.872Z,2.50
2018-09-18T08:46:27.766Z,2.43
2018-09-18T08:48:59.380Z,2.90
2018-09-18T08:51:28.501Z,2.63
2018-09-18T08:54:02.946Z,2.30
2018-09-18T08:56:42.500Z,2.87
2018-09-18T08:59:12.821Z,2.73
2018-09-18T09:01:42.288Z,3.00
2018-09-18T09:04:11.094Z,2.27
2018-09-18T09:06:41.558Z,2.37
2018-09-18T09:09:15.703Z,2.67
2018-09-18T09:11:45.553Z,2.60
2018-09-18T09:14:14.933Z,4.17
2018-09-18T09:16:43.839Z,2.30
2018-09-18T09:19:13.478Z,2.47
2018-09-18T09:21:43.317Z,2.27
2018-09-18T09:24:13.588Z,2.50
2018-09-18T09:26:48.579Z,2.30
2018-09-18T09:29:18.498Z,2.00
2018-09-18T09:34:23.165Z,2.33
2018-09-18T09:36:54.454Z,2.03
2018-09-18T09:39:24.543Z,2.13
2018-09-18T09:42:02.366Z,2.47
2018-09-18T09:44:33.149Z,3.60
2018-09-18T09:52:27.969Z,2.50
2018-09-18T09:55:03.293Z,2.50
2018-09-18T09:57:33.159Z,2.17
2018-09-18T10:00:02.428Z,2.60
2018-09-18T10:05:30.762Z,3.17
2018-09-18T10:10:38.429Z,2.57
2018-09-18T10:13:08.204Z,2.93
2018-09-18T10:19:08.147Z,3.60
2018-09-18T10:24:15.970Z,3.00
2018-09-18T10:26:51.988Z,2.50
2018-09-18T10:29:22.257Z,2.60
2018-09-18T10:31:54.978Z,2.40
2018-09-18T10:34:24.438Z,2.60
2018-09-18T10:36:56.452Z,2.07
2018-09-18T10:39:42.943Z,2.60
2018-09-18T10:42:13.833Z,2.50
2018-09-18T10:47:35.538Z,3.23
2018-09-18T10:50:06.391Z,2.87
2018-09-18T10:52:37.922Z,2.47
2018-09-18T10:55:08.311Z,3.33
2018-09-18T10:57:44.875Z,3.90
2018-09-18T11:00:27.956Z,3.97
2018-09-18T11:11:08.599Z,2.73
2018-09-18T11:13:37.973Z,2.80
2018-09-18T11:16:11.876Z,2.87
2018-09-18T11:18:44.719Z,2.10
2018-09-18T11:24:08.441Z,2.63
2018-09-18T11:29:20.282Z,2.60
2018-09-18T11:31:50.284Z,3.07
2018-09-18T11:34:21.734Z,2.80
2018-09-18T11:36:53.255Z,2.40
2018-09-18T11:39:26.441Z,2.20
2018-09-18T11:41:56.526Z,2.30
2018-09-18T11:44:30.704Z,2.73
2018-09-18T11:47:00.851Z,2.40
2018-09-18T11:52:07.836Z,2.80
2018-09-18T11:54:37.144Z,2.73
2018-09-18T11:57:07.251Z,2.67
2018-09-18T11:59:38.139Z,3.63
2018-09-18T12:02:08.918Z,4.80
2018-09-18T12:04:39.249Z,3.23
2018-09-18T12:07:10.668Z,2.93
2018-09-18T12:09:45.592Z,3.07
2018-09-18T12:12:15.566Z,2.90
2018-09-18T12:14:45.652Z,5.43
2018-09-18T12:17:14.293Z,2.73
2018-09-18T12:19:43.827Z,2.77
2018-09-18T12:22:14.215Z,2.83
2018-09-18T12:24:45.765Z,2.97
2018-09-18T12:27:18.682Z,3.13
2018-09-18T12:29:48.604Z,3.13
2018-09-18T12:32:19.085Z,3.47
2018-09-18T12:34:48.675Z,3.33
2018-09-18T12:37:26.657Z,3.07
2018-09-18T12:42:45.180Z,3.03
2018-09-18T12:45:27.785Z,3.23
2018-09-18T12:47:57.428Z,4.00
2018-09-18T12:50:34.283Z,3.93
2018-09-18T12:53:05.901Z,3.60
2018-09-18T12:55:41.306Z,3.20
2018-09-18T13:00:57.341Z,3.00
2018-09-18T13:06:09.843Z,3.80
2018-09-18T13:08:45.106Z,3.40
2018-09-18T13:19:33.142Z,3.57
2018-09-18T13:24:51.712Z,2.87
2018-09-18T13:27:32.444Z,3.20
2018-09-18T13:44:27.280Z,7.23
2018-09-18T13:58:26.678Z,2.80
2018-09-18T14:01:09.403Z,2.70
2018-09-18T14:15:06.243Z,2.80
2018-09-18T14:17:43.754Z,2.80
2018-09-18T14:20:14.637Z,2.60
2018-09-18T14:22:46.588Z,2.80
2018-09-18T14:25:30.878Z,2.83
2018-09-18T14:28:00.123Z,2.97
2018-09-18T14:30:28.927Z,2.80
2018-09-18T14:32:59.466Z,2.80
2018-09-18T14:35:39.656Z,2.90
2018-09-18T14:38:13.756Z,5.33
2018-09-18T14:40:44.360Z,2.57
2018-09-18T14:46:03.067Z,3.17
2018-09-18T14:48:39.622Z,3.10
2018-09-18T14:51:15.257Z,2.93
2018-09-18T14:56:37.750Z,3.47
2018-09-18T15:04:40.728Z,4.33
2018-09-18T15:07:16.271Z,4.00
2018-09-18T15:09:52.260Z,5.07
2018-09-18T15:15:16.917Z,4.20
2018-09-18T15:17:46.559Z,4.10
2018-09-18T15:20:16.927Z,4.30
2018-09-18T15:22:47.685Z,3.60
2018-09-18T15:25:18.363Z,3.97
2018-09-18T15:27:48.805Z,3.37
2018-09-18T15:30:19.963Z,3.97
2018-09-18T15:33:00.031Z,4.67
2018-09-18T15:35:30.399Z,3.63
2018-09-18T15:37:58.989Z,3.80
2018-09-18T15:40:35.100Z,4.37
2018-09-18T15:46:07.541Z,4.47
2018-09-18T15:48:37.099Z,4.90
2018-09-18T15:51:10.906Z,4.67
2018-09-18T15:56:23.405Z,6.55
2018-09-18T15:58:58.516Z,5.90
2018-09-18T16:01:34.104Z,5.90
2018-09-18T16:04:11.784Z,5.90
2018-09-18T16:06:41.808Z,5.92
2018-09-18T16:09:18.699Z,5.25
2018-09-18T16:11:55.042Z,6.08
2018-09-18T16:14:26.148Z,6.00
2018-09-18T16:17:07.230Z,7.55
2018-09-18T16:19:38.710Z,6.20
2018-09-18T16:22:16.030Z,4.92
2018-09-18T16:24:51.333Z,6.07
2018-09-18T16:27:22.744Z,5.57
2018-09-18T16:30:02.787Z,6.20
2018-09-18T16:38:06.238Z,6.20
2018-09-18T16:40:42.262Z,7.50
2018-09-18T16:43:13.266Z,7.10
2018-09-18T16:45:45.642Z,8.27
2018-09-18T16:48:19.015Z,8.10
2018-09-18T16:50:51.251Z,8.13
2018-09-18T16:56:11.353Z,8.47
2018-09-18T16:58:43.552Z,9.13
2018-09-18T17:01:14.826Z,9.30
2018-09-18T17:03:44.449Z,10.10
2018-09-18T17:09:06.738Z,7.50
2018-09-18T17:11:42.464Z,11.07
2018-09-18T17:14:12.270Z,9.83
2018-09-18T17:17:06.061Z,8.30
2018-09-18T17:25:24.724Z,9.50
2018-09-18T17:28:00.187Z,7.40
2018-09-18T17:30:32.939Z,5.93
2018-09-18T17:33:04.808Z,6.20
2018-09-18T17:35:40.539Z,5.40
2018-09-18T17:40:53.802Z,6.00
2018-09-18T17:46:23.957Z,8.10
2018-09-18T17:48:57.086Z,8.10
2018-09-18T17:54:23.916Z,7.47
2018-09-18T17:56:55.908Z,9.00
2018-09-18T17:59:30.635Z,6.50
2018-09-18T18:02:08.246Z,5.73
2018-09-18T18:04:46.231Z,5.63
2018-09-18T18:07:21.241Z,6.80
2018-09-18T18:12:43.853Z,5.60
2018-09-18T18:17:52.474Z,5.27
2018-09-18T18:20:23.714Z,6.83
2018-09-18T18:22:54.902Z,5.37
2018-09-18T18:25:32.800Z,5.60
2018-09-18T18:28:01.748Z,7.73
2018-09-18T18:33:10.111Z,5.70
2018-09-18T18:35:52.024Z,5.40
2018-09-18T18:38:20.896Z,5.90
2018-09-18T18:40:56.869Z,13.27
2018-09-18T18:46:47.180Z,4.80
2018-09-18T18:49:22.628Z,5.37
2018-09-18T18:51:54.507Z,5.90
2018-09-18T18:54:23.634Z,5.07
2018-09-18T18:57:07.213Z,6.33
2018-09-18T18:59:40.337Z,4.63
2018-09-18T19:02:15.458Z,5.13
2018-09-18T19:04:45.900Z,4.10
2018-09-18T19:07:20.671Z,5.43
2018-09-18T19:12:40.441Z,5.80
2018-09-18T19:18:34.530Z,4.60
2018-09-18T19:21:21.227Z,7.13
2018-09-18T19:24:00.867Z,4.67
2018-09-18T19:26:43.965Z,4.70
2018-09-18T19:34:49.061Z,4.10
2018-09-18T19:37:27.745Z,3.60
2018-09-18T19:40:00.876Z,4.07
2018-09-18T19:42:30.723Z,4.00
2018-09-18T19:47:56.871Z,3.80
2018-09-18T19:50:43.402Z,3.80
2018-09-18T19:55:58.692Z,3.43
2018-09-18T20:01:20.840Z,3.17
2018-09-18T20:44:18.895Z,6.63
2018-09-18T20:49:35.371Z,6.97
2018-09-18T21:18:13.339Z,4.87
2018-09-18T22:15:44.741Z,5.30
2018-09-18T22:26:54.296Z,5.17
2018-09-18T22:32:19.073Z,4.93
2018-09-18T22:40:30.449Z,4.50
2018-09-18T22:43:10.551Z,5.00
2018-09-18T22:45:57.296Z,5.10
2018-09-18T22:48:39.702Z,4.37
2018-09-18T22:54:28.004Z,5.00
2018-09-18T23:00:09.401Z,4.40
2018-09-18T23:02:52.831Z,4.47
2018-09-18T23:05:53.560Z,4.77
2018-09-18T23:08:34.123Z,4.93
2018-09-18T23:11:04.368Z,5.67
2018-09-18T23:13:43.047Z,4.80
2018-09-18T23:19:49.940Z,5.23
2018-09-18T23:22:21.286Z,4.73
2018-09-18T23:24:58.817Z,4.43
2018-09-18T23:27:35.158Z,4.57
2018-09-18T23:30:14.092Z,4.70
2018-09-18T23:35:30.871Z,4.60
2018-09-18T23:38:04.883Z,4.30
2018-09-18T23:40:35.228Z,4.63
2018-09-18T23:43:15.446Z,4.67
2018-09-18T23:48:34.893Z,4.60
2018-09-18T23:51:04.952Z,4.10
2018-09-18T23:53:44.356Z,4.50
2018-09-18T23:56:18.453Z,4.60
2018-09-18T23:58:54.209Z,4.80
